首页
METAR-TAF:

METAR-TAF

机场 :

阿维亚诺空军基地

Aviano, 意大利

纬度: 46-02N, 经度: 012-36E, 海拔: 128米

当前天气观测

该预报发布于5小时和31分钟前的19:55 UTC
风速5节,风向东北
温度 15°C
湿度 88%
气压 1017 hPa
能见度10公里或以上
少量云层高于5000英尺

METAR: LIPA 161955Z 05005KT 9999 FEW050 15/13 Q1017 RMK FEW VIS MIN 9999 WIND THR05 /////KT WIND THR23 /////KT A3006 BLU

时间: 03:26 (01:26 UTC)

预报

该预报发布于8小时和26分钟前的17:00 UTC
预报有效从16日的 18点(UTC)到 17日的 03点(UTC)
风速3节,风向东北
能見度: 8000
少量云层高于2500英尺
散云层高于3500英尺
几率 40% :
短暂存在
从 16日的 20点(UTC)到 17日的 03点(UTC)
能見度: 4000
多云层高于2000英尺
轻雾

TAF: LIPA 161700Z 1618/1703 05003KT 8000 FEW025 SCT035 PROB40 TEMPO 1620/1703 4000 BR BKN020

超过4000个机场的气象观测和天气预报(METAR&TAF报告)。

可查询的气象台以黄色和红色小点在地图上表示。

将鼠标移到小点上方,可查看气象台名称。

然后点击查看天气观测和预报。

如需切换地图:点击带黑十字的绿色按钮放大地图;点击带横线的绿色按钮缩小地图;或者点击绿色箭头查看邻近地区的地图。


METAR-TAF: